sensor_id;sensor_type;location;lat;lon;timestamp;P1;durP1;ratioP1;P2;durP2;ratioP2
71083;SDS011;58741;52.672;13.548;2024-02-26T00:00:00;3.45;;;2.03;;
71083;SDS011;58741;52.672;13.548;2024-02-26T00:02:30;3.60;;;2.10;;
71083;SDS011;58741;52.672;13.548;2024-02-26T00:04:57;2.72;;;2.00;;
71083;SDS011;58741;52.672;13.548;2024-02-26T00:07:24;4.50;;;2.50;;
71083;SDS011;58741;52.672;13.548;2024-02-26T00:09:51;4.13;;;2.20;;
71083;SDS011;58741;52.672;13.548;2024-02-26T00:12:18;4.50;;;2.30;;
71083;SDS011;58741;52.672;13.548;2024-02-26T00:14:44;3.88;;;2.33;;
71083;SDS011;58741;52.672;13.548;2024-02-26T00:17:13;3.30;;;2.28;;
71083;SDS011;58741;52.672;13.548;2024-02-26T00:19:40;2.75;;;1.98;;
71083;SDS011;58741;52.672;13.548;2024-02-26T00:22:07;3.13;;;2.22;;
71083;SDS011;58741;52.672;13.548;2024-02-26T00:24:33;3.78;;;2.15;;
71083;SDS011;58741;52.672;13.548;2024-02-26T00:27:00;4.80;;;2.67;;
71083;SDS011;58741;52.672;13.548;2024-02-26T00:29:27;2.72;;;1.95;;
71083;SDS011;58741;52.672;13.548;2024-02-26T00:31:54;3.33;;;1.88;;
71083;SDS011;58741;52.672;13.548;2024-02-26T00:34:20;2.63;;;1.90;;
71083;SDS011;58741;52.672;13.548;2024-02-26T00:36:48;3.22;;;1.95;;
71083;SDS011;58741;52.672;13.548;2024-02-26T00:39:14;3.53;;;2.17;;
71083;SDS011;58741;52.672;13.548;2024-02-26T00:41:41;3.55;;;2.30;;
71083;SDS011;58741;52.672;13.548;2024-02-26T00:44:08;2.92;;;2.00;;
71083;SDS011;58741;52.672;13.548;2024-02-26T00:46:35;4.03;;;2.50;;
71083;SDS011;58741;52.672;13.548;2024-02-26T00:49:02;3.80;;;2.20;;
71083;SDS011;58741;52.672;13.548;2024-02-26T00:51:29;3.03;;;2.40;;
71083;SDS011;58741;52.672;13.548;2024-02-26T00:53:56;2.78;;;2.35;;
71083;SDS011;58741;52.672;13.548;2024-02-26T00:56:23;4.25;;;2.15;;
71083;SDS011;58741;52.672;13.548;2024-02-26T00:58:50;5.28;;;2.53;;
71083;SDS011;58741;52.672;13.548;2024-02-26T01:01:17;3.20;;;2.40;;
71083;SDS011;58741;52.672;13.548;2024-02-26T01:03:44;3.78;;;2.60;;
71083;SDS011;58741;52.672;13.548;2024-02-26T01:06:11;4.63;;;2.58;;
71083;SDS011;58741;52.672;13.548;2024-02-26T01:08:38;2.72;;;2.13;;
71083;SDS011;58741;52.672;13.548;2024-02-26T01:11:05;3.38;;;2.50;;
71083;SDS011;58741;52.672;13.548;2024-02-26T01:13:32;2.15;;;1.83;;
71083;SDS011;58741;52.672;13.548;2024-02-26T01:15:59;2.55;;;2.20;;
71083;SDS011;58741;52.672;13.548;2024-02-26T01:18:27;3.45;;;2.13;;
71083;SDS011;58741;52.672;13.548;2024-02-26T01:20:54;3.40;;;2.30;;
71083;SDS011;58741;52.672;13.548;2024-02-26T01:23:21;4.65;;;2.53;;
71083;SDS011;58741;52.672;13.548;2024-02-26T01:25:48;3.55;;;1.98;;
71083;SDS011;58741;52.672;13.548;2024-02-26T01:28:15;5.03;;;3.00;;
71083;SDS011;58741;52.672;13.548;2024-02-26T01:30:42;6.00;;;2.47;;
71083;SDS011;58741;52.672;13.548;2024-02-26T01:33:09;4.13;;;2.10;;
71083;SDS011;58741;52.672;13.548;2024-02-26T01:35:36;4.28;;;2.30;;
71083;SDS011;58741;52.672;13.548;2024-02-26T01:38:03;6.32;;;2.70;;
71083;SDS011;58741;52.672;13.548;2024-02-26T01:40:30;4.03;;;2.00;;
71083;SDS011;58741;52.672;13.548;2024-02-26T01:42:57;3.35;;;1.88;;
71083;SDS011;58741;52.672;13.548;2024-02-26T01:45:25;2.95;;;2.20;;
71083;SDS011;58741;52.672;13.548;2024-02-26T01:47:52;3.05;;;2.10;;
71083;SDS011;58741;52.672;13.548;2024-02-26T01:50:19;3.50;;;2.00;;
71083;SDS011;58741;52.672;13.548;2024-02-26T01:52:49;1.95;;;1.70;;
71083;SDS011;58741;52.672;13.548;2024-02-26T01:55:19;3.22;;;1.92;;
71083;SDS011;58741;52.672;13.548;2024-02-26T01:57:48;2.92;;;1.83;;
71083;SDS011;58741;52.672;13.548;2024-02-26T02:00:17;3.95;;;2.10;;
71083;SDS011;58741;52.672;13.548;2024-02-26T02:02:46;3.47;;;1.92;;
71083;SDS011;58741;52.672;13.548;2024-02-26T02:05:15;2.15;;;1.40;;
71083;SDS011;58741;52.672;13.548;2024-02-26T02:07:45;2.30;;;1.63;;
71083;SDS011;58741;52.672;13.548;2024-02-26T02:10:15;2.72;;;1.90;;
71083;SDS011;58741;52.672;13.548;2024-02-26T02:12:42;2.55;;;1.70;;
71083;SDS011;58741;52.672;13.548;2024-02-26T02:15:09;2.78;;;1.50;;
71083;SDS011;58741;52.672;13.548;2024-02-26T02:17:36;2.72;;;1.55;;
71083;SDS011;58741;52.672;13.548;2024-02-26T02:20:03;2.45;;;1.75;;
71083;SDS011;58741;52.672;13.548;2024-02-26T02:22:33;2.42;;;1.63;;
71083;SDS011;58741;52.672;13.548;2024-02-26T02:25:00;1.85;;;1.40;;
71083;SDS011;58741;52.672;13.548;2024-02-26T02:27:27;1.85;;;1.52;;
71083;SDS011;58741;52.672;13.548;2024-02-26T02:29:55;2.58;;;1.38;;
71083;SDS011;58741;52.672;13.548;2024-02-26T02:32:22;2.53;;;1.40;;
71083;SDS011;58741;52.672;13.548;2024-02-26T02:34:51;2.63;;;1.45;;
71083;SDS011;58741;52.672;13.548;2024-02-26T02:37:18;2.20;;;1.20;;
71083;SDS011;58741;52.672;13.548;2024-02-26T02:39:45;1.65;;;1.27;;
71083;SDS011;58741;52.672;13.548;2024-02-26T02:42:12;3.25;;;1.67;;
71083;SDS011;58741;52.672;13.548;2024-02-26T02:44:39;2.75;;;1.70;;
71083;SDS011;58741;52.672;13.548;2024-02-26T02:47:06;2.78;;;1.70;;
71083;SDS011;58741;52.672;13.548;2024-02-26T02:49:33;3.08;;;1.85;;
71083;SDS011;58741;52.672;13.548;2024-02-26T02:52:00;2.80;;;1.63;;
71083;SDS011;58741;52.672;13.548;2024-02-26T02:54:27;2.67;;;1.30;;
71083;SDS011;58741;52.672;13.548;2024-02-26T02:56:54;2.55;;;1.80;;
71083;SDS011;58741;52.672;13.548;2024-02-26T02:59:21;2.28;;;1.35;;
71083;SDS011;58741;52.672;13.548;2024-02-26T03:01:47;2.45;;;1.70;;
71083;SDS011;58741;52.672;13.548;2024-02-26T03:04:14;2.95;;;1.48;;
71083;SDS011;58741;52.672;13.548;2024-02-26T03:06:41;2.72;;;1.38;;
71083;SDS011;58741;52.672;13.548;2024-02-26T03:09:08;2.35;;;1.67;;
71083;SDS011;58741;52.672;13.548;2024-02-26T03:11:35;3.97;;;1.70;;
71083;SDS011;58741;52.672;13.548;2024-02-26T03:14:02;2.45;;;1.58;;
71083;SDS011;58741;52.672;13.548;2024-02-26T03:16:29;2.35;;;1.48;;
71083;SDS011;58741;52.672;13.548;2024-02-26T03:18:56;3.55;;;1.83;;
71083;SDS011;58741;52.672;13.548;2024-02-26T03:21:23;1.63;;;1.27;;
71083;SDS011;58741;52.672;13.548;2024-02-26T03:23:51;3.85;;;1.30;;
71083;SDS011;58741;52.672;13.548;2024-02-26T03:26:18;1.60;;;1.30;;
71083;SDS011;58741;52.672;13.548;2024-02-26T03:28:45;2.08;;;1.58;;
71083;SDS011;58741;52.672;13.548;2024-02-26T03:31:12;1.75;;;1.15;;
71083;SDS011;58741;52.672;13.548;2024-02-26T03:33:38;1.65;;;1.20;;
71083;SDS011;58741;52.672;13.548;2024-02-26T03:36:06;2.42;;;1.48;;
71083;SDS011;58741;52.672;13.548;2024-02-26T03:38:33;2.78;;;1.70;;
71083;SDS011;58741;52.672;13.548;2024-02-26T03:41:00;1.90;;;1.40;;
71083;SDS011;58741;52.672;13.548;2024-02-26T03:43:27;2.10;;;1.58;;
71083;SDS011;58741;52.672;13.548;2024-02-26T03:45:54;2.35;;;1.58;;
71083;SDS011;58741;52.672;13.548;2024-02-26T03:48:20;1.80;;;1.60;;
71083;SDS011;58741;52.672;13.548;2024-02-26T03:50:48;2.03;;;1.83;;
71083;SDS011;58741;52.672;13.548;2024-02-26T03:53:14;3.13;;;1.48;;
71083;SDS011;58741;52.672;13.548;2024-02-26T03:55:41;1.42;;;1.15;;
71083;SDS011;58741;52.672;13.548;2024-02-26T03:58:08;2.22;;;1.55;;
71083;SDS011;58741;52.672;13.548;2024-02-26T04:00:36;4.55;;;1.50;;
71083;SDS011;58741;52.672;13.548;2024-02-26T04:03:03;1.60;;;1.27;;
71083;SDS011;58741;52.672;13.548;2024-02-26T04:05:30;2.47;;;1.50;;
71083;SDS011;58741;52.672;13.548;2024-02-26T04:07:57;2.70;;;1.73;;
71083;SDS011;58741;52.672;13.548;2024-02-26T04:10:24;2.42;;;1.67;;
71083;SDS011;58741;52.672;13.548;2024-02-26T04:12:51;2.80;;;1.20;;
71083;SDS011;58741;52.672;13.548;2024-02-26T04:15:18;3.13;;;1.38;;
71083;SDS011;58741;52.672;13.548;2024-02-26T04:17:44;1.83;;;1.13;;
71083;SDS011;58741;52.672;13.548;2024-02-26T04:20:15;1.73;;;1.08;;
71083;SDS011;58741;52.672;13.548;2024-02-26T04:22:43;1.48;;;1.10;;
71083;SDS011;58741;52.672;13.548;2024-02-26T04:25:11;2.10;;;1.42;;
71083;SDS011;58741;52.672;13.548;2024-02-26T04:27:38;2.08;;;1.30;;
71083;SDS011;58741;52.672;13.548;2024-02-26T04:30:05;1.63;;;1.15;;
71083;SDS011;58741;52.672;13.548;2024-02-26T04:32:33;1.70;;;1.60;;
71083;SDS011;58741;52.672;13.548;2024-02-26T04:35:01;1.60;;;1.13;;
71083;SDS011;58741;52.672;13.548;2024-02-26T04:37:29;3.08;;;1.45;;
71083;SDS011;58741;52.672;13.548;2024-02-26T04:40:00;1.55;;;1.33;;
71083;SDS011;58741;52.672;13.548;2024-02-26T04:42:27;1.73;;;1.38;;
71083;SDS011;58741;52.672;13.548;2024-02-26T04:44:54;1.75;;;1.23;;
71083;SDS011;58741;52.672;13.548;2024-02-26T04:47:21;2.72;;;1.60;;
71083;SDS011;58741;52.672;13.548;2024-02-26T04:49:49;1.42;;;1.30;;
71083;SDS011;58741;52.672;13.548;2024-02-26T04:52:16;3.50;;;1.58;;
71083;SDS011;58741;52.672;13.548;2024-02-26T04:54:44;2.33;;;1.58;;
71083;SDS011;58741;52.672;13.548;2024-02-26T04:57:11;1.42;;;1.10;;
71083;SDS011;58741;52.672;13.548;2024-02-26T04:59:38;1.58;;;1.10;;
71083;SDS011;58741;52.672;13.548;2024-02-26T05:02:07;2.75;;;1.40;;
71083;SDS011;58741;52.672;13.548;2024-02-26T05:04:34;2.92;;;1.70;;
71083;SDS011;58741;52.672;13.548;2024-02-26T05:07:01;2.97;;;1.90;;
71083;SDS011;58741;52.672;13.548;2024-02-26T05:09:28;2.33;;;1.45;;
71083;SDS011;58741;52.672;13.548;2024-02-26T05:11:54;2.60;;;1.48;;
71083;SDS011;58741;52.672;13.548;2024-02-26T05:14:21;1.63;;;1.17;;
71083;SDS011;58741;52.672;13.548;2024-02-26T05:16:48;3.28;;;1.80;;
71083;SDS011;58741;52.672;13.548;2024-02-26T05:19:15;1.48;;;1.02;;
71083;SDS011;58741;52.672;13.548;2024-02-26T05:21:41;2.67;;;1.50;;
71083;SDS011;58741;52.672;13.548;2024-02-26T05:24:10;1.58;;;1.42;;
71083;SDS011;58741;52.672;13.548;2024-02-26T05:26:37;3.35;;;1.50;;
71083;SDS011;58741;52.672;13.548;2024-02-26T05:29:04;2.95;;;1.50;;
71083;SDS011;58741;52.672;13.548;2024-02-26T05:31:30;2.38;;;1.60;;
71083;SDS011;58741;52.672;13.548;2024-02-26T05:33:57;2.78;;;1.55;;
71083;SDS011;58741;52.672;13.548;2024-02-26T05:36:24;3.53;;;1.88;;
71083;SDS011;58741;52.672;13.548;2024-02-26T05:38:52;2.50;;;1.70;;
71083;SDS011;58741;52.672;13.548;2024-02-26T05:41:19;4.72;;;2.42;;
71083;SDS011;58741;52.672;13.548;2024-02-26T05:43:49;4.75;;;3.15;;
71083;SDS011;58741;52.672;13.548;2024-02-26T05:46:19;7.00;;;2.40;;
71083;SDS011;58741;52.672;13.548;2024-02-26T05:48:48;4.05;;;2.30;;
71083;SDS011;58741;52.672;13.548;2024-02-26T05:51:18;3.55;;;2.40;;
71083;SDS011;58741;52.672;13.548;2024-02-26T05:53:45;3.97;;;2.00;;
71083;SDS011;58741;52.672;13.548;2024-02-26T05:56:23;2.85;;;1.73;;
71083;SDS011;58741;52.672;13.548;2024-02-26T05:58:50;3.70;;;1.95;;
71083;SDS011;58741;52.672;13.548;2024-02-26T06:01:17;2.42;;;1.67;;
71083;SDS011;58741;52.672;13.548;2024-02-26T06:03:44;2.20;;;1.63;;
71083;SDS011;58741;52.672;13.548;2024-02-26T06:06:11;2.53;;;1.80;;
71083;SDS011;58741;52.672;13.548;2024-02-26T06:08:39;3.08;;;1.80;;
71083;SDS011;58741;52.672;13.548;2024-02-26T06:11:06;2.33;;;1.75;;
71083;SDS011;58741;52.672;13.548;2024-02-26T06:13:36;3.63;;;2.20;;
71083;SDS011;58741;52.672;13.548;2024-02-26T06:16:03;2.35;;;1.80;;
71083;SDS011;58741;52.672;13.548;2024-02-26T06:18:30;6.10;;;2.70;;
71083;SDS011;58741;52.672;13.548;2024-02-26T06:20:57;3.92;;;2.50;;
71083;SDS011;58741;52.672;13.548;2024-02-26T06:23:24;4.63;;;2.60;;
71083;SDS011;58741;52.672;13.548;2024-02-26T06:25:52;5.43;;;2.67;;
71083;SDS011;58741;52.672;13.548;2024-02-26T06:28:18;5.55;;;2.42;;
71083;SDS011;58741;52.672;13.548;2024-02-26T06:30:45;3.28;;;2.28;;
71083;SDS011;58741;52.672;13.548;2024-02-26T06:33:12;3.33;;;2.10;;
71083;SDS011;58741;52.672;13.548;2024-02-26T06:35:40;3.88;;;2.30;;
71083;SDS011;58741;52.672;13.548;2024-02-26T06:38:08;3.08;;;2.25;;
71083;SDS011;58741;52.672;13.548;2024-02-26T06:40:35;3.45;;;2.25;;
71083;SDS011;58741;52.672;13.548;2024-02-26T06:43:02;2.22;;;1.80;;
71083;SDS011;58741;52.672;13.548;2024-02-26T06:45:29;5.93;;;2.13;;
71083;SDS011;58741;52.672;13.548;2024-02-26T06:47:56;6.03;;;2.55;;
71083;SDS011;58741;52.672;13.548;2024-02-26T06:50:23;4.22;;;2.03;;
71083;SDS011;58741;52.672;13.548;2024-02-26T06:52:49;5.88;;;2.75;;
71083;SDS011;58741;52.672;13.548;2024-02-26T06:55:16;5.05;;;2.47;;
71083;SDS011;58741;52.672;13.548;2024-02-26T06:57:43;5.15;;;2.83;;
71083;SDS011;58741;52.672;13.548;2024-02-26T07:00:10;5.25;;;3.17;;
71083;SDS011;58741;52.672;13.548;2024-02-26T07:02:41;6.70;;;3.60;;
71083;SDS011;58741;52.672;13.548;2024-02-26T07:05:09;6.05;;;3.25;;
71083;SDS011;58741;52.672;13.548;2024-02-26T07:07:36;4.13;;;2.83;;
71083;SDS011;58741;52.672;13.548;2024-02-26T07:10:03;6.32;;;3.22;;
71083;SDS011;58741;52.672;13.548;2024-02-26T07:12:31;6.40;;;3.45;;
71083;SDS011;58741;52.672;13.548;2024-02-26T07:14:59;6.93;;;3.75;;
71083;SDS011;58741;52.672;13.548;2024-02-26T07:17:27;4.32;;;2.90;;
71083;SDS011;58741;52.672;13.548;2024-02-26T07:19:53;6.03;;;3.22;;
71083;SDS011;58741;52.672;13.548;2024-02-26T07:22:20;6.70;;;3.63;;
71083;SDS011;58741;52.672;13.548;2024-02-26T07:24:47;5.35;;;3.40;;
71083;SDS011;58741;52.672;13.548;2024-02-26T07:27:14;5.78;;;2.92;;
71083;SDS011;58741;52.672;13.548;2024-02-26T07:29:43;7.10;;;3.40;;
71083;SDS011;58741;52.672;13.548;2024-02-26T07:32:10;8.93;;;3.38;;
71083;SDS011;58741;52.672;13.548;2024-02-26T07:34:37;6.40;;;3.42;;
71083;SDS011;58741;52.672;13.548;2024-02-26T07:37:08;4.95;;;3.03;;
71083;SDS011;58741;52.672;13.548;2024-02-26T07:39:35;6.13;;;3.50;;
71083;SDS011;58741;52.672;13.548;2024-02-26T07:42:02;7.00;;;4.18;;
71083;SDS011;58741;52.672;13.548;2024-02-26T07:44:29;5.93;;;3.30;;
71083;SDS011;58741;52.672;13.548;2024-02-26T07:46:56;6.70;;;3.00;;
71083;SDS011;58741;52.672;13.548;2024-02-26T07:49:23;6.22;;;3.63;;
71083;SDS011;58741;52.672;13.548;2024-02-26T07:51:50;7.32;;;3.20;;
71083;SDS011;58741;52.672;13.548;2024-02-26T07:54:16;6.10;;;3.50;;
71083;SDS011;58741;52.672;13.548;2024-02-26T07:56:45;5.55;;;3.05;;
71083;SDS011;58741;52.672;13.548;2024-02-26T07:59:12;7.88;;;4.03;;
71083;SDS011;58741;52.672;13.548;2024-02-26T08:01:40;5.75;;;3.28;;
71083;SDS011;58741;52.672;13.548;2024-02-26T08:04:08;6.80;;;3.90;;
71083;SDS011;58741;52.672;13.548;2024-02-26T08:06:35;6.43;;;3.83;;
71083;SDS011;58741;52.672;13.548;2024-02-26T08:09:04;5.45;;;3.80;;
71083;SDS011;58741;52.672;13.548;2024-02-26T08:11:31;7.22;;;3.92;;
71083;SDS011;58741;52.672;13.548;2024-02-26T08:13:58;8.68;;;3.90;;
71083;SDS011;58741;52.672;13.548;2024-02-26T08:16:25;7.68;;;3.63;;
71083;SDS011;58741;52.672;13.548;2024-02-26T08:18:53;6.97;;;3.53;;
71083;SDS011;58741;52.672;13.548;2024-02-26T08:21:20;10.75;;;4.15;;
71083;SDS011;58741;52.672;13.548;2024-02-26T08:23:47;7.63;;;4.18;;
71083;SDS011;58741;52.672;13.548;2024-02-26T08:26:14;7.32;;;3.35;;
71083;SDS011;58741;52.672;13.548;2024-02-26T08:28:40;5.70;;;3.00;;
71083;SDS011;58741;52.672;13.548;2024-02-26T08:31:07;6.60;;;4.10;;
71083;SDS011;58741;52.672;13.548;2024-02-26T08:33:34;7.15;;;4.32;;
71083;SDS011;58741;52.672;13.548;2024-02-26T08:36:05;7.38;;;3.50;;
71083;SDS011;58741;52.672;13.548;2024-02-26T08:38:32;6.63;;;3.58;;
71083;SDS011;58741;52.672;13.548;2024-02-26T08:41:01;8.27;;;4.50;;
71083;SDS011;58741;52.672;13.548;2024-02-26T08:43:29;7.68;;;4.22;;
71083;SDS011;58741;52.672;13.548;2024-02-26T08:45:56;4.40;;;3.17;;
71083;SDS011;58741;52.672;13.548;2024-02-26T08:48:24;8.02;;;3.38;;
71083;SDS011;58741;52.672;13.548;2024-02-26T08:50:51;6.03;;;3.63;;
71083;SDS011;58741;52.672;13.548;2024-02-26T08:53:18;5.00;;;3.50;;
71083;SDS011;58741;52.672;13.548;2024-02-26T08:55:56;7.38;;;3.70;;
71083;SDS011;58741;52.672;13.548;2024-02-26T08:58:23;6.53;;;3.80;;
71083;SDS011;58741;52.672;13.548;2024-02-26T09:00:50;8.77;;;3.83;;
71083;SDS011;58741;52.672;13.548;2024-02-26T09:03:17;6.90;;;3.67;;
71083;SDS011;58741;52.672;13.548;2024-02-26T09:05:44;6.88;;;3.97;;
71083;SDS011;58741;52.672;13.548;2024-02-26T09:08:11;8.75;;;4.55;;
71083;SDS011;58741;52.672;13.548;2024-02-26T09:10:38;6.40;;;3.65;;
71083;SDS011;58741;52.672;13.548;2024-02-26T09:13:05;6.15;;;3.55;;
71083;SDS011;58741;52.672;13.548;2024-02-26T09:15:32;7.53;;;4.28;;
71083;SDS011;58741;52.672;13.548;2024-02-26T09:17:59;6.13;;;3.83;;
71083;SDS011;58741;52.672;13.548;2024-02-26T09:20:26;6.25;;;4.07;;
71083;SDS011;58741;52.672;13.548;2024-02-26T09:22:53;6.43;;;3.70;;
71083;SDS011;58741;52.672;13.548;2024-02-26T09:25:20;5.70;;;3.58;;
71083;SDS011;58741;52.672;13.548;2024-02-26T09:27:47;4.63;;;3.20;;
71083;SDS011;58741;52.672;13.548;2024-02-26T09:30:14;7.57;;;3.83;;
71083;SDS011;58741;52.672;13.548;2024-02-26T09:32:41;6.20;;;3.47;;
71083;SDS011;58741;52.672;13.548;2024-02-26T09:35:12;5.78;;;3.25;;
71083;SDS011;58741;52.672;13.548;2024-02-26T09:37:39;5.68;;;3.13;;
71083;SDS011;58741;52.672;13.548;2024-02-26T09:40:06;5.90;;;3.60;;
71083;SDS011;58741;52.672;13.548;2024-02-26T09:42:33;5.07;;;3.28;;
71083;SDS011;58741;52.672;13.548;2024-02-26T09:45:01;8.05;;;4.20;;
71083;SDS011;58741;52.672;13.548;2024-02-26T09:47:34;5.72;;;2.90;;
71083;SDS011;58741;52.672;13.548;2024-02-26T09:50:05;7.13;;;3.58;;
71083;SDS011;58741;52.672;13.548;2024-02-26T09:52:35;6.70;;;3.60;;
71083;SDS011;58741;52.672;13.548;2024-02-26T09:55:04;10.88;;;3.35;;
71083;SDS011;58741;52.672;13.548;2024-02-26T09:57:32;7.50;;;3.78;;
71083;SDS011;58741;52.672;13.548;2024-02-26T09:59:59;4.32;;;2.50;;
71083;SDS011;58741;52.672;13.548;2024-02-26T10:02:32;5.10;;;2.83;;
71083;SDS011;58741;52.672;13.548;2024-02-26T10:05:00;6.32;;;3.13;;
71083;SDS011;58741;52.672;13.548;2024-02-26T10:07:31;6.50;;;2.40;;
71083;SDS011;58741;52.672;13.548;2024-02-26T10:09:59;5.50;;;3.05;;
71083;SDS011;58741;52.672;13.548;2024-02-26T10:12:26;4.53;;;2.80;;
71083;SDS011;58741;52.672;13.548;2024-02-26T10:14:56;6.43;;;2.83;;
71083;SDS011;58741;52.672;13.548;2024-02-26T10:17:23;6.22;;;2.92;;
71083;SDS011;58741;52.672;13.548;2024-02-26T10:19:51;6.55;;;3.53;;
71083;SDS011;58741;52.672;13.548;2024-02-26T10:22:22;6.68;;;2.65;;
71083;SDS011;58741;52.672;13.548;2024-02-26T10:24:49;5.75;;;2.75;;
71083;SDS011;58741;52.672;13.548;2024-02-26T10:27:16;5.32;;;2.42;;
71083;SDS011;58741;52.672;13.548;2024-02-26T10:29:45;4.88;;;2.80;;
71083;SDS011;58741;52.672;13.548;2024-02-26T10:32:13;6.47;;;2.40;;
71083;SDS011;58741;52.672;13.548;2024-02-26T10:34:40;6.28;;;2.90;;
71083;SDS011;58741;52.672;13.548;2024-02-26T10:37:08;5.78;;;2.80;;
71083;SDS011;58741;52.672;13.548;2024-02-26T10:39:36;4.03;;;2.72;;
71083;SDS011;58741;52.672;13.548;2024-02-26T10:42:04;4.00;;;2.28;;
71083;SDS011;58741;52.672;13.548;2024-02-26T10:44:36;3.03;;;2.05;;
71083;SDS011;58741;52.672;13.548;2024-02-26T10:47:07;5.13;;;2.40;;
71083;SDS011;58741;52.672;13.548;2024-02-26T10:49:34;4.75;;;2.50;;
71083;SDS011;58741;52.672;13.548;2024-02-26T10:52:02;4.20;;;2.28;;
71083;SDS011;58741;52.672;13.548;2024-02-26T10:54:32;3.25;;;2.20;;
71083;SDS011;58741;52.672;13.548;2024-02-26T10:57:00;2.55;;;1.95;;
71083;SDS011;58741;52.672;13.548;2024-02-26T10:59:28;3.28;;;2.40;;
71083;SDS011;58741;52.672;13.548;2024-02-26T11:01:58;3.53;;;2.35;;
71083;SDS011;58741;52.672;13.548;2024-02-26T11:04:25;6.15;;;2.72;;
71083;SDS011;58741;52.672;13.548;2024-02-26T11:06:54;4.05;;;2.78;;
71083;SDS011;58741;52.672;13.548;2024-02-26T11:09:23;6.50;;;2.80;;
71083;SDS011;58741;52.672;13.548;2024-02-26T11:11:51;8.93;;;2.40;;
71083;SDS011;58741;52.672;13.548;2024-02-26T11:14:21;5.35;;;2.85;;
71083;SDS011;58741;52.672;13.548;2024-02-26T11:16:51;3.58;;;2.58;;
71083;SDS011;58741;52.672;13.548;2024-02-26T11:19:21;5.60;;;3.00;;
71083;SDS011;58741;52.672;13.548;2024-02-26T11:21:50;6.63;;;2.70;;
71083;SDS011;58741;52.672;13.548;2024-02-26T11:24:17;6.07;;;2.97;;
71083;SDS011;58741;52.672;13.548;2024-02-26T11:26:48;5.53;;;2.50;;
71083;SDS011;58741;52.672;13.548;2024-02-26T11:29:40;5.93;;;2.50;;
71083;SDS011;58741;52.672;13.548;2024-02-26T11:32:16;3.72;;;2.08;;
71083;SDS011;58741;52.672;13.548;2024-02-26T11:34:43;3.10;;;1.73;;
71083;SDS011;58741;52.672;13.548;2024-02-26T11:37:11;3.40;;;2.17;;
71083;SDS011;58741;52.672;13.548;2024-02-26T11:39:40;3.90;;;2.20;;
71083;SDS011;58741;52.672;13.548;2024-02-26T11:42:07;3.65;;;2.30;;
71083;SDS011;58741;52.672;13.548;2024-02-26T11:44:35;3.33;;;2.00;;
71083;SDS011;58741;52.672;13.548;2024-02-26T11:47:18;2.92;;;1.70;;
71083;SDS011;58741;52.672;13.548;2024-02-26T11:49:46;3.35;;;1.90;;
71083;SDS011;58741;52.672;13.548;2024-02-26T11:52:14;3.30;;;1.90;;
71083;SDS011;58741;52.672;13.548;2024-02-26T11:57:58;4.65;;;2.38;;
71083;SDS011;58741;52.672;13.548;2024-02-26T12:05:24;2.05;;;1.40;;
71083;SDS011;58741;52.672;13.548;2024-02-26T12:08:14;1.45;;;1.27;;
71083;SDS011;58741;52.672;13.548;2024-02-26T12:10:43;1.70;;;1.25;;
71083;SDS011;58741;52.672;13.548;2024-02-26T12:13:11;5.55;;;1.75;;
71083;SDS011;58741;52.672;13.548;2024-02-26T12:15:45;2.58;;;1.30;;
71083;SDS011;58741;52.672;13.548;2024-02-26T12:18:23;2.15;;;1.50;;
71083;SDS011;58741;52.672;13.548;2024-02-26T12:21:00;2.25;;;1.48;;
71083;SDS011;58741;52.672;13.548;2024-02-26T12:23:29;1.77;;;1.42;;
71083;SDS011;58741;52.672;13.548;2024-02-26T12:25:59;2.70;;;1.58;;
71083;SDS011;58741;52.672;13.548;2024-02-26T12:28:30;1.92;;;1.27;;
71083;SDS011;58741;52.672;13.548;2024-02-26T12:30:57;2.03;;;1.15;;
71083;SDS011;58741;52.672;13.548;2024-02-26T12:33:26;2.22;;;1.10;;
71083;SDS011;58741;52.672;13.548;2024-02-26T12:35:54;3.90;;;2.10;;
71083;SDS011;58741;52.672;13.548;2024-02-26T12:38:21;6.10;;;2.75;;
71083;SDS011;58741;52.672;13.548;2024-02-26T12:40:48;7.85;;;4.43;;
71083;SDS011;58741;52.672;13.548;2024-02-26T12:43:16;9.18;;;5.32;;
71083;SDS011;58741;52.672;13.548;2024-02-26T12:45:43;10.90;;;3.92;;
71083;SDS011;58741;52.672;13.548;2024-02-26T12:48:12;7.38;;;3.08;;
71083;SDS011;58741;52.672;13.548;2024-02-26T12:50:44;3.85;;;2.67;;
71083;SDS011;58741;52.672;13.548;2024-02-26T12:53:11;16.38;;;8.50;;
71083;SDS011;58741;52.672;13.548;2024-02-26T12:55:38;14.60;;;6.65;;
71083;SDS011;58741;52.672;13.548;2024-02-26T12:58:06;7.68;;;4.80;;
71083;SDS011;58741;52.672;13.548;2024-02-26T13:00:33;6.00;;;2.78;;
71083;SDS011;58741;52.672;13.548;2024-02-26T13:03:01;4.88;;;3.10;;
71083;SDS011;58741;52.672;13.548;2024-02-26T13:05:28;2.60;;;1.88;;
71083;SDS011;58741;52.672;13.548;2024-02-26T13:07:55;3.15;;;2.42;;
71083;SDS011;58741;52.672;13.548;2024-02-26T13:10:22;3.45;;;2.10;;
71083;SDS011;58741;52.672;13.548;2024-02-26T13:12:50;2.63;;;1.63;;
71083;SDS011;58741;52.672;13.548;2024-02-26T13:15:18;2.88;;;1.65;;
71083;SDS011;58741;52.672;13.548;2024-02-26T13:17:47;2.97;;;1.38;;
71083;SDS011;58741;52.672;13.548;2024-02-26T13:20:27;3.30;;;1.40;;
71083;SDS011;58741;52.672;13.548;2024-02-26T13:23:02;1.75;;;1.30;;
71083;SDS011;58741;52.672;13.548;2024-02-26T13:25:33;1.38;;;1.00;;
71083;SDS011;58741;52.672;13.548;2024-02-26T13:28:35;2.30;;;1.23;;
71083;SDS011;58741;52.672;13.548;2024-02-26T13:30:55;1.77;;;0.85;;
71083;SDS011;58741;52.672;13.548;2024-02-26T13:33:24;1.95;;;1.10;;
71083;SDS011;58741;52.672;13.548;2024-02-26T13:35:52;1.95;;;1.45;;
71083;SDS011;58741;52.672;13.548;2024-02-26T13:38:19;1.40;;;1.05;;
71083;SDS011;58741;52.672;13.548;2024-02-26T13:40:46;2.55;;;1.13;;
71083;SDS011;58741;52.672;13.548;2024-02-26T13:43:13;1.08;;;0.93;;
71083;SDS011;58741;52.672;13.548;2024-02-26T13:45:40;2.47;;;1.05;;
71083;SDS011;58741;52.672;13.548;2024-02-26T13:48:08;3.35;;;1.40;;
71083;SDS011;58741;52.672;13.548;2024-02-26T13:50:39;2.17;;;1.42;;
71083;SDS011;58741;52.672;13.548;2024-02-26T13:53:09;2.15;;;1.00;;
71083;SDS011;58741;52.672;13.548;2024-02-26T13:55:37;2.03;;;1.23;;
71083;SDS011;58741;52.672;13.548;2024-02-26T13:58:06;1.20;;;1.10;;
71083;SDS011;58741;52.672;13.548;2024-02-26T14:00:33;2.35;;;1.20;;
71083;SDS011;58741;52.672;13.548;2024-02-26T14:03:01;1.10;;;1.00;;
71083;SDS011;58741;52.672;13.548;2024-02-26T14:05:29;1.73;;;1.10;;
71083;SDS011;58741;52.672;13.548;2024-02-26T14:07:56;2.53;;;1.15;;
71083;SDS011;58741;52.672;13.548;2024-02-26T14:10:23;3.83;;;1.50;;
71083;SDS011;58741;52.672;13.548;2024-02-26T14:12:50;1.67;;;1.20;;
71083;SDS011;58741;52.672;13.548;2024-02-26T14:15:17;1.45;;;0.82;;
71083;SDS011;58741;52.672;13.548;2024-02-26T14:17:44;5.93;;;1.33;;
71083;SDS011;58741;52.672;13.548;2024-02-26T14:20:12;3.10;;;1.25;;
71083;SDS011;58741;52.672;13.548;2024-02-26T14:22:39;1.95;;;1.40;;
71083;SDS011;58741;52.672;13.548;2024-02-26T14:25:06;1.23;;;1.00;;
71083;SDS011;58741;52.672;13.548;2024-02-26T14:27:35;1.42;;;1.23;;
71083;SDS011;58741;52.672;13.548;2024-02-26T14:30:02;3.13;;;1.48;;
71083;SDS011;58741;52.672;13.548;2024-02-26T14:32:29;1.52;;;1.20;;
71083;SDS011;58741;52.672;13.548;2024-02-26T14:35:01;2.08;;;1.33;;
71083;SDS011;58741;52.672;13.548;2024-02-26T14:37:29;3.08;;;1.48;;
71083;SDS011;58741;52.672;13.548;2024-02-26T14:39:56;5.47;;;1.77;;
71083;SDS011;58741;52.672;13.548;2024-02-26T14:42:22;3.28;;;1.40;;
71083;SDS011;58741;52.672;13.548;2024-02-26T14:44:50;2.22;;;1.48;;